createdAt,value
2022-08-08T00:02:03.749Z,1.47
2022-08-08T00:04:35.543Z,1.93
2022-08-08T00:07:28.907Z,1.50
2022-08-08T00:09:58.908Z,1.50
2022-08-08T00:12:33.956Z,1.70
2022-08-08T00:15:17.628Z,1.50
2022-08-08T00:18:30.380Z,1.30
2022-08-08T00:21:05.213Z,1.77
2022-08-08T00:23:51.250Z,1.50
2022-08-08T00:26:29.539Z,1.60
2022-08-08T00:29:09.167Z,1.70
2022-08-08T00:32:32.795Z,1.50
2022-08-08T00:35:18.751Z,1.30
2022-08-08T00:38:02.343Z,1.47
2022-08-08T00:41:10.898Z,1.70
2022-08-08T00:44:11.599Z,2.20
2022-08-08T00:46:57.213Z,1.97
2022-08-08T00:50:00.289Z,1.80
2022-08-08T00:53:06.695Z,1.70
2022-08-08T00:56:11.294Z,1.90
2022-08-08T00:59:05.907Z,1.50
2022-08-08T01:01:51.551Z,1.53
2022-08-08T01:04:50.731Z,2.00
2022-08-08T01:07:55.428Z,1.70
2022-08-08T01:10:52.331Z,2.33
2022-08-08T01:14:01.213Z,2.23
2022-08-08T01:16:32.396Z,3.37
2022-08-08T01:20:01.229Z,3.60
2022-08-08T01:22:41.696Z,3.10
2022-08-08T01:25:47.204Z,2.73
2022-08-08T01:28:47.120Z,2.40
2022-08-08T01:32:13.850Z,2.30
2022-08-08T01:35:11.913Z,2.73
2022-08-08T01:37:56.313Z,2.43
2022-08-08T01:41:00.517Z,2.20
2022-08-08T01:43:39.319Z,3.90
2022-08-08T01:46:15.008Z,4.50
2022-08-08T01:49:22.949Z,3.80
2022-08-08T01:52:56.284Z,3.70
2022-08-08T01:56:27.795Z,3.73
2022-08-08T01:58:39.504Z,3.50
2022-08-08T02:02:00.034Z,3.60
2022-08-08T02:05:09.415Z,4.30
2022-08-08T02:08:16.441Z,4.13
2022-08-08T02:11:23.676Z,4.40
2022-08-08T02:14:15.166Z,4.53
2022-08-08T02:17:20.256Z,3.40
2022-08-08T02:20:09.179Z,3.87
2022-08-08T02:23:07.666Z,4.53
2022-08-08T02:25:48.852Z,4.13
2022-08-08T02:28:41.758Z,5.00
2022-08-08T02:32:01.108Z,4.83
2022-08-08T02:35:08.375Z,4.40
2022-08-08T02:38:00.288Z,5.00
2022-08-08T02:41:03.292Z,5.07
2022-08-08T02:44:39.317Z,4.10
2022-08-08T02:47:51.987Z,4.53
2022-08-08T02:50:58.829Z,4.77
2022-08-08T02:53:57.649Z,4.60
2022-08-08T02:56:51.389Z,5.87
2022-08-08T03:00:26.772Z,5.70
2022-08-08T03:03:16.729Z,5.13
2022-08-08T03:06:34.395Z,5.00
2022-08-08T03:09:50.401Z,5.00
2022-08-08T03:12:36.787Z,5.03
2022-08-08T03:16:01.149Z,4.37
2022-08-08T03:18:49.956Z,3.67
2022-08-08T03:21:40.859Z,3.20
2022-08-08T03:24:11.222Z,3.47
2022-08-08T03:26:48.884Z,3.60
2022-08-08T03:29:38.240Z,3.23
2022-08-08T03:32:33.165Z,2.83
2022-08-08T03:35:05.600Z,2.90
2022-08-08T03:38:54.243Z,2.73
2022-08-08T03:40:30.562Z,2.60
2022-08-08T03:43:16.406Z,2.23
2022-08-08T03:46:05.094Z,2.10
2022-08-08T03:49:10.116Z,2.00
2022-08-08T03:51:40.026Z,1.93
2022-08-08T03:54:15.689Z,2.00
2022-08-08T03:57:00.467Z,1.50
2022-08-08T04:00:02.558Z,1.63
2022-08-08T04:03:11.199Z,2.07
2022-08-08T04:05:39.900Z,1.60
2022-08-08T04:08:33.614Z,1.70
2022-08-08T04:11:11.244Z,2.10
2022-08-08T04:14:04.462Z,1.80
2022-08-08T04:16:38.849Z,1.73
2022-08-08T04:19:23.294Z,1.57
2022-08-08T04:21:54.347Z,1.60
2022-08-08T04:24:28.739Z,1.70
2022-08-08T04:26:58.749Z,2.00
2022-08-08T04:29:26.607Z,2.20
2022-08-08T04:31:59.144Z,2.03
2022-08-08T04:34:31.809Z,1.70
2022-08-08T04:36:59.632Z,2.10
2022-08-08T04:40:04.226Z,2.77
2022-08-08T04:42:18.163Z,2.20
2022-08-08T04:44:47.702Z,1.90
2022-08-08T04:47:17.152Z,2.77
2022-08-08T04:50:00.313Z,2.07
2022-08-08T04:52:34.382Z,2.40
2022-08-08T04:55:06.447Z,2.40
2022-08-08T04:57:36.832Z,2.47
2022-08-08T05:00:07.036Z,2.90
2022-08-08T05:02:39.685Z,2.13
2022-08-08T05:05:19.942Z,2.20
2022-08-08T05:07:59.603Z,2.33
2022-08-08T05:10:30.023Z,2.57
2022-08-08T05:13:01.581Z,2.30
2022-08-08T05:16:47.929Z,2.10
2022-08-08T05:18:19.433Z,2.53
2022-08-08T05:20:50.373Z,2.50
2022-08-08T05:23:20.469Z,2.30
2022-08-08T05:25:51.918Z,2.73
2022-08-08T05:28:55.941Z,3.30
2022-08-08T05:32:02.234Z,2.80
2022-08-08T05:34:18.656Z,2.77
2022-08-08T05:36:53.453Z,2.90
2022-08-08T05:39:25.219Z,3.17
2022-08-08T05:42:00.873Z,2.50
2022-08-08T05:44:31.387Z,2.83
2022-08-08T05:47:03.279Z,2.30
2022-08-08T05:49:38.061Z,2.33
2022-08-08T05:52:09.599Z,2.23
2022-08-08T05:54:50.518Z,2.57
2022-08-08T05:57:20.870Z,2.57
2022-08-08T06:00:22.359Z,2.30
2022-08-08T06:03:13.376Z,2.30
2022-08-08T06:06:06.543Z,2.17
2022-08-08T06:08:38.052Z,2.07
2022-08-08T06:11:05.621Z,2.17
2022-08-08T06:13:36.087Z,2.30
2022-08-08T06:16:15.388Z,2.40
2022-08-08T06:18:44.614Z,2.47
2022-08-08T06:21:28.411Z,2.80
2022-08-08T06:24:03.594Z,2.50
2022-08-08T06:26:45.403Z,3.60
2022-08-08T06:29:56.565Z,2.60
2022-08-08T06:32:28.518Z,2.27
2022-08-08T06:35:30.735Z,2.43
2022-08-08T06:38:03.118Z,2.00
2022-08-08T06:40:32.113Z,1.90
2022-08-08T06:43:11.204Z,1.80
2022-08-08T06:45:40.908Z,1.93
2022-08-08T06:48:11.187Z,2.27
2022-08-08T06:50:41.798Z,1.97
2022-08-08T06:53:20.148Z,1.70
2022-08-08T06:56:02.014Z,1.90
2022-08-08T06:58:33.175Z,2.10
2022-08-08T07:01:11.796Z,2.00
2022-08-08T07:04:40.056Z,1.90
2022-08-08T07:06:51.246Z,1.67
2022-08-08T07:09:41.949Z,1.57
2022-08-08T07:12:37.485Z,1.80
2022-08-08T07:15:23.466Z,2.00
2022-08-08T07:18:35.621Z,2.10
2022-08-08T07:20:51.718Z,1.83
2022-08-08T07:23:24.348Z,1.80
2022-08-08T07:25:55.004Z,1.93
2022-08-08T07:28:31.387Z,2.10
2022-08-08T07:30:59.367Z,1.80
2022-08-08T07:33:27.147Z,2.30
2022-08-08T07:36:07.997Z,1.80
2022-08-08T07:38:39.210Z,1.80
2022-08-08T07:41:23.375Z,1.80
2022-08-08T07:43:56.424Z,1.97
2022-08-08T07:46:30.492Z,1.80
2022-08-08T07:49:01.101Z,1.80
2022-08-08T07:51:53.049Z,1.77
2022-08-08T07:55:03.725Z,1.70
2022-08-08T07:57:36.117Z,1.77
2022-08-08T08:00:16.258Z,1.70
2022-08-08T08:03:09.863Z,2.43
2022-08-08T08:05:45.200Z,1.70
2022-08-08T08:08:20.539Z,1.65
2022-08-08T08:10:56.351Z,1.67
2022-08-08T08:14:07.499Z,1.50
2022-08-08T08:16:41.055Z,1.63
2022-08-08T08:19:15.368Z,2.10
2022-08-08T08:21:56.940Z,1.80
2022-08-08T08:24:32.081Z,1.90
2022-08-08T08:27:05.367Z,1.77
2022-08-08T08:29:39.563Z,1.70
2022-08-08T08:32:24.164Z,2.03
2022-08-08T08:35:04.765Z,1.75
2022-08-08T08:37:33.508Z,2.00
2022-08-08T08:40:21.070Z,1.63
2022-08-08T08:42:53.563Z,1.75
2022-08-08T08:45:23.862Z,1.70
2022-08-08T08:47:58.393Z,1.75
2022-08-08T08:50:33.440Z,2.00
2022-08-08T08:53:54.617Z,1.83
2022-08-08T08:56:02.119Z,1.98
2022-08-08T08:58:42.853Z,1.92
2022-08-08T09:01:18.963Z,1.88
2022-08-08T09:03:51.446Z,1.88
2022-08-08T09:06:37.645Z,1.73
2022-08-08T09:09:26.727Z,1.70
2022-08-08T09:12:07.853Z,1.60
2022-08-08T09:14:35.561Z,1.65
2022-08-08T09:17:15.754Z,1.55
2022-08-08T09:22:01.643Z,1.50
2022-08-08T09:22:35.761Z,1.40
2022-08-08T09:25:05.932Z,1.67
2022-08-08T09:27:55.493Z,1.67
2022-08-08T09:30:26.957Z,1.73
2022-08-08T09:33:53.963Z,1.45
2022-08-08T09:35:50.121Z,1.77
2022-08-08T09:38:52.381Z,1.75
2022-08-08T09:42:14.953Z,1.60
2022-08-08T09:44:41.307Z,1.52
2022-08-08T09:47:26.749Z,1.88
2022-08-08T09:50:03.499Z,1.77
2022-08-08T09:52:57.680Z,1.70
2022-08-08T09:55:51.269Z,1.55
2022-08-08T09:58:25.955Z,1.80
2022-08-08T10:01:02.117Z,1.70
2022-08-08T10:03:39.698Z,1.90
2022-08-08T10:06:19.638Z,1.88
2022-08-08T10:08:57.543Z,1.55
2022-08-08T10:12:27.445Z,1.55
2022-08-08T10:14:27.665Z,1.25
2022-08-08T10:16:56.055Z,1.60
2022-08-08T10:19:45.956Z,1.50
2022-08-08T10:22:25.996Z,1.77
2022-08-08T10:25:15.832Z,1.63
2022-08-08T10:27:43.888Z,1.25
2022-08-08T10:30:16.651Z,1.42
2022-08-08T10:33:02.262Z,1.52
2022-08-08T10:36:06.844Z,1.77
2022-08-08T10:38:25.264Z,1.30
2022-08-08T10:41:00.596Z,1.45
2022-08-08T10:43:43.072Z,1.50
2022-08-08T10:46:30.357Z,1.67
2022-08-08T10:48:59.599Z,1.65
2022-08-08T10:51:47.225Z,1.38
2022-08-08T10:54:28.733Z,1.52
2022-08-08T10:57:00.295Z,1.70
2022-08-08T10:59:31.023Z,1.70
2022-08-08T11:02:00.552Z,1.70
2022-08-08T11:04:39.160Z,1.40
2022-08-08T11:07:15.034Z,1.63
2022-08-08T11:10:05.087Z,1.80
2022-08-08T11:12:46.883Z,1.33
2022-08-08T11:15:16.952Z,1.40
2022-08-08T11:17:59.908Z,1.77
2022-08-08T11:20:32.620Z,2.00
2022-08-08T11:23:06.408Z,1.67
2022-08-08T11:25:52.004Z,1.60
2022-08-08T11:28:30.416Z,2.00
2022-08-08T11:31:03.723Z,1.75
2022-08-08T11:33:53.431Z,1.55
2022-08-08T11:36:27.788Z,1.50
2022-08-08T11:38:56.950Z,1.83
2022-08-08T11:41:27.896Z,1.40
2022-08-08T11:44:03.925Z,1.58
2022-08-08T11:46:36.904Z,1.30
2022-08-08T11:49:13.921Z,1.50
2022-08-08T11:51:50.232Z,1.42
2022-08-08T11:54:33.805Z,1.35
2022-08-08T11:57:27.838Z,1.60
2022-08-08T12:00:07.497Z,1.42
2022-08-08T12:03:00.343Z,1.27
2022-08-08T12:05:38.852Z,1.50
2022-08-08T12:08:10.383Z,1.40
2022-08-08T12:10:51.097Z,1.45
2022-08-08T12:13:38.244Z,1.50
2022-08-08T12:16:16.618Z,1.23
2022-08-08T12:18:54.856Z,1.30
2022-08-08T12:22:00.707Z,1.40
2022-08-08T12:24:28.284Z,0.90
2022-08-08T12:26:59.273Z,0.80
2022-08-08T12:29:40.114Z,0.90
2022-08-08T12:32:20.175Z,0.90
2022-08-08T12:35:13.060Z,0.90
2022-08-08T12:37:48.096Z,0.93
2022-08-08T12:40:56.988Z,0.90
2022-08-08T12:43:47.888Z,0.75
2022-08-08T12:46:25.177Z,0.73
2022-08-08T12:49:25.213Z,0.70
2022-08-08T12:51:58.474Z,0.82
2022-08-08T12:54:33.444Z,0.70
2022-08-08T12:57:23.489Z,0.90
2022-08-08T13:00:04.877Z,0.75
2022-08-08T13:02:52.555Z,1.10
2022-08-08T13:05:26.003Z,0.80
2022-08-08T13:08:33.436Z,1.05
2022-08-08T13:11:05.405Z,1.00
2022-08-08T13:13:38.125Z,1.00
2022-08-08T13:16:19.159Z,1.05
2022-08-08T13:18:55.867Z,0.90
2022-08-08T13:21:55.516Z,0.88
2022-08-08T13:24:40.796Z,0.60
2022-08-08T13:27:18.009Z,0.82
2022-08-08T13:29:56.970Z,1.25
2022-08-08T13:32:26.828Z,0.90
2022-08-08T13:34:59.048Z,0.88
2022-08-08T13:38:04.671Z,0.98
2022-08-08T13:40:17.841Z,0.90
2022-08-08T13:42:56.417Z,1.02
2022-08-08T13:45:31.474Z,0.90
2022-08-08T13:48:11.501Z,1.00
2022-08-08T13:50:53.880Z,1.00
2022-08-08T13:53:31.434Z,1.05
2022-08-08T13:56:11.271Z,1.20
2022-08-08T13:58:57.513Z,1.08
2022-08-08T14:01:42.164Z,1.10
2022-08-08T14:04:27.567Z,1.00
2022-08-08T14:07:04.530Z,1.10
2022-08-08T14:10:02.874Z,1.35
2022-08-08T14:12:36.653Z,1.15
2022-08-08T14:15:07.670Z,1.40
2022-08-08T14:17:57.907Z,1.35
2022-08-08T14:20:58.029Z,1.10
2022-08-08T14:24:06.473Z,1.48
2022-08-08T14:26:28.014Z,1.40
2022-08-08T14:28:58.576Z,1.63
2022-08-08T14:32:05.684Z,1.30
2022-08-08T14:34:19.537Z,1.42
2022-08-08T14:36:54.572Z,1.52
2022-08-08T14:39:24.971Z,1.20
2022-08-08T14:42:10.139Z,1.30
2022-08-08T14:44:40.867Z,1.40
2022-08-08T14:47:21.378Z,1.08
2022-08-08T14:50:06.575Z,1.55
2022-08-08T14:52:57.210Z,1.02
2022-08-08T14:55:41.465Z,1.13
2022-08-08T14:58:16.701Z,1.90
2022-08-08T15:00:49.930Z,1.33
2022-08-08T15:03:20.151Z,1.40
2022-08-08T15:05:53.724Z,1.60
2022-08-08T15:08:35.433Z,1.33
2022-08-08T15:11:11.475Z,1.42
2022-08-08T15:14:02.053Z,1.40
2022-08-08T15:16:34.412Z,1.70
2022-08-08T15:19:05.139Z,1.20
2022-08-08T15:21:42.620Z,1.38
2022-08-08T15:24:15.867Z,1.20
2022-08-08T15:26:52.533Z,1.50
2022-08-08T15:29:24.575Z,1.40
2022-08-08T15:32:19.174Z,1.27
2022-08-08T15:34:44.016Z,1.40
2022-08-08T15:37:13.816Z,1.60
2022-08-08T15:39:42.922Z,1.42
2022-08-08T15:42:31.547Z,1.52
2022-08-08T15:45:02.718Z,1.90
2022-08-08T15:47:33.280Z,3.25
2022-08-08T15:50:04.144Z,1.42
2022-08-08T15:52:37.204Z,1.23
2022-08-08T15:55:09.460Z,1.10
2022-08-08T15:57:39.932Z,1.27
2022-08-08T16:00:27.644Z,1.70
2022-08-08T16:02:55.920Z,1.80
2022-08-08T16:05:25.134Z,1.50
2022-08-08T16:08:10.785Z,2.10
2022-08-08T16:13:05.262Z,1.88
2022-08-08T16:13:34.964Z,2.00
2022-08-08T16:16:17.426Z,1.70
2022-08-08T16:18:56.286Z,1.90
2022-08-08T16:21:30.759Z,1.43
2022-08-08T16:24:02.723Z,2.00
2022-08-08T16:26:35.038Z,2.70
2022-08-08T16:29:09.364Z,2.00
2022-08-08T16:31:48.499Z,3.10
2022-08-08T16:34:19.380Z,3.00
2022-08-08T16:36:52.765Z,2.33
2022-08-08T16:39:48.905Z,2.20
2022-08-08T16:42:17.665Z,2.30
2022-08-08T16:44:54.603Z,2.07
2022-08-08T16:47:40.530Z,2.00
2022-08-08T16:50:14.117Z,2.43
2022-08-08T16:55:00.981Z,1.70
2022-08-08T16:55:53.449Z,1.93
2022-08-08T16:58:26.616Z,1.60
2022-08-08T17:00:59.030Z,1.80
2022-08-08T17:03:59.985Z,1.70
2022-08-08T17:06:37.743Z,2.00
2022-08-08T17:09:00.287Z,1.93
2022-08-08T17:11:38.873Z,1.77
2022-08-08T17:14:19.510Z,1.93
2022-08-08T17:16:57.362Z,3.87
2022-08-08T17:19:27.540Z,2.70
2022-08-08T17:21:56.696Z,2.77
2022-08-08T17:24:27.840Z,3.30
2022-08-08T17:26:57.925Z,3.17
2022-08-08T17:29:36.184Z,3.13
2022-08-08T17:32:05.875Z,3.03
2022-08-08T17:35:04.393Z,4.37
2022-08-08T17:37:25.204Z,3.73
2022-08-08T17:40:06.268Z,3.03
2022-08-08T17:42:39.591Z,3.33
2022-08-08T17:45:14.339Z,3.00
2022-08-08T17:47:56.694Z,2.90
2022-08-08T17:50:29.576Z,2.93
2022-08-08T17:52:57.518Z,3.23
2022-08-08T17:56:05.526Z,2.63
2022-08-08T17:58:17.961Z,2.20
2022-08-08T18:00:56.177Z,2.90
2022-08-08T18:03:25.422Z,3.07
2022-08-08T18:05:55.579Z,2.93
2022-08-08T18:08:41.174Z,3.57
2022-08-08T18:11:16.585Z,2.50
2022-08-08T18:13:46.039Z,2.47
2022-08-08T18:16:20.249Z,2.77
2022-08-08T18:18:56.641Z,2.53
2022-08-08T18:21:58.833Z,2.57
2022-08-08T18:24:21.605Z,2.67
2022-08-08T18:26:55.879Z,2.60
2022-08-08T18:29:33.934Z,2.73
2022-08-08T18:32:17.748Z,2.13
2022-08-08T18:34:50.056Z,2.13
2022-08-08T18:37:17.830Z,2.50
2022-08-08T18:40:01.815Z,2.97
2022-08-08T18:42:28.836Z,2.40
2022-08-08T18:44:57.792Z,2.70
2022-08-08T18:47:26.683Z,2.20
2022-08-08T18:49:59.939Z,3.00
2022-08-08T18:52:29.922Z,2.37
2022-08-08T18:55:09.467Z,2.13
2022-08-08T18:57:44.545Z,2.53
2022-08-08T19:00:20.317Z,2.20
2022-08-08T19:02:55.826Z,2.87
2022-08-08T19:05:32.278Z,2.30
2022-08-08T19:08:10.264Z,2.73
2022-08-08T19:10:54.597Z,2.67
2022-08-08T19:13:24.531Z,2.20
2022-08-08T19:15:55.806Z,3.20
2022-08-08T19:18:32.495Z,2.40
2022-08-08T19:21:22.971Z,3.03
2022-08-08T19:23:57.468Z,2.50
2022-08-08T19:26:30.789Z,2.20
2022-08-08T19:29:01.661Z,2.30
2022-08-08T19:31:31.006Z,2.70
2022-08-08T19:34:29.518Z,2.50
2022-08-08T19:36:48.211Z,2.10
2022-08-08T19:39:19.399Z,2.67
2022-08-08T19:41:48.668Z,3.00
2022-08-08T19:44:43.123Z,2.67
2022-08-08T19:47:09.636Z,2.63
2022-08-08T19:49:43.494Z,2.20
2022-08-08T19:52:37.214Z,3.23
2022-08-08T19:55:14.536Z,2.07
2022-08-08T19:57:47.418Z,2.43
2022-08-08T20:00:30.627Z,2.20
2022-08-08T20:03:14.987Z,2.23
2022-08-08T20:06:14.054Z,2.53
2022-08-08T20:08:48.353Z,2.60
2022-08-08T20:11:22.066Z,2.40
2022-08-08T20:14:32.284Z,2.33
2022-08-08T20:16:41.146Z,2.43
2022-08-08T20:19:09.590Z,2.33
2022-08-08T20:21:38.260Z,2.40
2022-08-08T20:24:11.566Z,2.10
2022-08-08T20:26:47.228Z,2.07
2022-08-08T20:29:18.294Z,2.20
2022-08-08T20:32:02.742Z,2.90
2022-08-08T20:34:36.514Z,1.87
2022-08-08T20:37:09.152Z,2.30
2022-08-08T20:39:51.001Z,1.70
2022-08-08T20:42:23.780Z,2.13
2022-08-08T20:44:57.832Z,2.50
2022-08-08T20:47:25.930Z,1.60
2022-08-08T20:49:54.583Z,1.77
2022-08-08T20:52:26.209Z,2.07
2022-08-08T20:54:53.308Z,2.10
2022-08-08T20:57:21.275Z,2.10
2022-08-08T20:59:49.793Z,2.20
2022-08-08T21:02:25.467Z,2.07
2022-08-08T21:05:01.118Z,2.07
2022-08-08T21:08:33.480Z,2.00
2022-08-08T21:10:21.550Z,2.10
2022-08-08T21:12:56.460Z,2.00
2022-08-08T21:16:04.143Z,2.50
2022-08-08T21:18:14.559Z,2.37
2022-08-08T21:20:42.817Z,2.00
2022-08-08T21:23:19.200Z,2.37
2022-08-08T21:25:54.791Z,2.40
2022-08-08T21:28:35.465Z,2.67
2022-08-08T21:31:23.312Z,1.83
2022-08-08T21:33:53.514Z,2.30
2022-08-08T21:36:28.443Z,2.23
2022-08-08T21:39:04.454Z,2.20
2022-08-08T21:41:42.822Z,2.17
2022-08-08T21:44:20.130Z,2.60
2022-08-08T21:48:05.673Z,2.10
2022-08-08T21:49:34.397Z,2.07
2022-08-08T21:54:33.967Z,2.17
2022-08-08T21:55:01.801Z,2.20
2022-08-08T21:57:42.473Z,2.13
2022-08-08T22:00:14.355Z,2.10
2022-08-08T22:02:45.725Z,1.90
2022-08-08T22:05:14.884Z,2.00
2022-08-08T22:07:48.463Z,2.13
2022-08-08T22:10:28.580Z,1.90
2022-08-08T22:13:18.848Z,2.00
2022-08-08T22:15:59.793Z,2.43
2022-08-08T22:18:32.759Z,2.13
2022-08-08T22:21:14.670Z,2.30
2022-08-08T22:23:53.524Z,2.10
2022-08-08T22:26:29.091Z,2.40
2022-08-08T22:29:15.139Z,2.63
2022-08-08T22:32:02.366Z,2.03
2022-08-08T22:34:39.918Z,1.90
2022-08-08T22:37:28.218Z,2.20
2022-08-08T22:40:01.171Z,2.17
2022-08-08T22:42:34.549Z,1.80
2022-08-08T22:45:12.419Z,2.03
2022-08-08T22:47:49.092Z,1.67
2022-08-08T22:50:26.859Z,1.70
2022-08-08T22:54:33.192Z,2.10
2022-08-08T22:55:57.890Z,1.90
2022-08-08T22:58:34.722Z,1.90
2022-08-08T23:01:16.591Z,2.17
2022-08-08T23:03:57.894Z,2.33
2022-08-08T23:06:27.335Z,2.73
2022-08-08T23:09:00.199Z,2.57
2022-08-08T23:11:30.969Z,2.73
2022-08-08T23:14:21.059Z,2.57
2022-08-08T23:16:57.499Z,2.50
2022-08-08T23:19:25.284Z,2.70
2022-08-08T23:21:52.546Z,2.60
2022-08-08T23:24:23.028Z,2.77
2022-08-08T23:26:53.263Z,2.80
2022-08-08T23:29:29.908Z,2.43
2022-08-08T23:31:59.353Z,2.90
2022-08-08T23:34:29.271Z,2.90
2022-08-08T23:37:00.835Z,2.90
2022-08-08T23:39:41.824Z,2.87
2022-08-08T23:42:25.354Z,3.00
2022-08-08T23:44:54.786Z,2.57
2022-08-08T23:49:03.736Z,2.43
2022-08-08T23:50:29.841Z,2.70
2022-08-08T23:53:03.517Z,2.80
2022-08-08T23:55:42.026Z,3.00
2022-08-08T23:58:09.360Z,3.10
